Detroit, Michigan
Current Conditions -  °F | °C
As of 9:00 PM on Saturday 25 Oct 2014 (Local Time) from CYQG Reporting Station
Clear Clear  
Wind Chill: 59°   Ceiling: Unl
Heat Index: 59°   Visibility: 15mi
Dew Point: 34°   Wind: 16mph
Humidity: 39%   Direction: 290°WNW
Pressure: 29.79"   Gusts: 23mph
Location:  42.33°N, 83.05°W
Report Text: CYQG 260100Z 29014G20KT 15SM SKC 15/01 A2979 RMK SLP087 DENSITY ALT 800FT
Loading
Personal Weather Stations






























Interactive Weather Map
Tropical Storm Tracking
New forecast layout! Learn more

10-Day Weather Forecast

Advertisements
Track Severe Weather on mobile